sensor_id;sensor_type;location;lat;lon;timestamp;pressure;altitude;pressure_sealevel;temperature;humidity
49813;BME280;35706;52.100;5.056;2022-12-18T00:00:41;102912.53;;;-2.40;93.75
49813;BME280;35706;52.100;5.056;2022-12-18T00:01:41;102909.97;;;-2.40;94.14
49813;BME280;35706;52.100;5.056;2022-12-18T00:02:44;102912.53;;;-2.34;93.73
49813;BME280;35706;52.100;5.056;2022-12-18T00:03:45;102901.38;;;-2.35;93.89
49813;BME280;35706;52.100;5.056;2022-12-18T00:04:45;102902.22;;;-2.34;93.51
49813;BME280;35706;52.100;5.056;2022-12-18T00:05:49;102902.22;;;-2.34;93.37
49813;BME280;35706;52.100;5.056;2022-12-18T00:06:50;102902.22;;;-2.33;93.48
49813;BME280;35706;52.100;5.056;2022-12-18T00:07:50;102899.63;;;-2.37;93.49
49813;BME280;35706;52.100;5.056;2022-12-18T00:08:51;102904.81;;;-2.33;93.53
49813;BME280;35706;52.100;5.056;2022-12-18T00:09:51;102895.34;;;-2.38;93.65
49813;BME280;35706;52.100;5.056;2022-12-18T00:10:52;102893.59;;;-2.29;93.41
49813;BME280;35706;52.100;5.056;2022-12-18T00:11:52;102899.66;;;-2.39;93.26
49813;BME280;35706;52.100;5.056;2022-12-18T00:12:52;102900.50;;;-2.32;92.99
49813;BME280;35706;52.100;5.056;2022-12-18T00:13:55;102892.78;;;-2.38;93.13
49813;BME280;35706;52.100;5.056;2022-12-18T00:14:56;102887.63;;;-2.38;93.46
49813;BME280;35706;52.100;5.056;2022-12-18T00:16:04;102885.06;;;-2.44;93.67
49813;BME280;35706;52.100;5.056;2022-12-18T00:17:05;102882.47;;;-2.35;93.48
49813;BME280;35706;52.100;5.056;2022-12-18T00:18:06;102876.47;;;-2.36;93.33
49813;BME280;35706;52.100;5.056;2022-12-18T00:19:06;102889.38;;;-2.56;93.43
49813;BME280;35706;52.100;5.056;2022-12-18T00:20:08;102891.97;;;-2.56;93.91
49813;BME280;35706;52.100;5.056;2022-12-18T00:21:10;102889.38;;;-2.62;94.29
49813;BME280;35706;52.100;5.056;2022-12-18T00:22:11;102891.09;;;-2.67;94.69
49813;BME280;35706;52.100;5.056;2022-12-18T00:23:11;102891.09;;;-2.55;94.60
49813;BME280;35706;52.100;5.056;2022-12-18T00:24:11;102893.66;;;-2.50;94.17
49813;BME280;35706;52.100;5.056;2022-12-18T00:25:12;102893.66;;;-2.50;93.72
49813;BME280;35706;52.100;5.056;2022-12-18T00:26:15;102893.63;;;-2.46;93.58
49813;BME280;35706;52.100;5.056;2022-12-18T00:27:15;102888.47;;;-2.46;93.40
49813;BME280;35706;52.100;5.056;2022-12-18T00:28:16;102900.53;;;-2.51;93.41
49813;BME280;35706;52.100;5.056;2022-12-18T00:29:16;102891.06;;;-2.50;93.42
49813;BME280;35706;52.100;5.056;2022-12-18T00:30:16;102892.78;;;-2.41;93.06
49813;BME280;35706;52.100;5.056;2022-12-18T00:31:20;102888.47;;;-2.39;92.73
49813;BME280;35706;52.100;5.056;2022-12-18T00:32:20;102889.34;;;-2.40;92.56
49813;BME280;35706;52.100;5.056;2022-12-18T00:33:20;102896.22;;;-2.44;92.39
49813;BME280;35706;52.100;5.056;2022-12-18T00:34:21;102891.94;;;-2.48;92.88
49813;BME280;35706;52.100;5.056;2022-12-18T00:35:21;102892.81;;;-2.57;93.08
49813;BME280;35706;52.100;5.056;2022-12-18T00:36:32;102890.22;;;-2.48;93.02
49813;BME280;35706;52.100;5.056;2022-12-18T00:37:34;102883.38;;;-2.61;93.34
49813;BME280;35706;52.100;5.056;2022-12-18T00:38:34;102891.06;;;-2.49;93.22
49813;BME280;35706;52.100;5.056;2022-12-18T00:39:35;102888.47;;;-2.46;92.90
49813;BME280;35706;52.100;5.056;2022-12-18T00:40:35;102894.50;;;-2.54;93.18
49813;BME280;35706;52.100;5.056;2022-12-18T00:41:35;102898.81;;;-2.59;93.32
49813;BME280;35706;52.100;5.056;2022-12-18T00:42:54;102892.81;;;-2.55;92.97
49813;BME280;35706;52.100;5.056;2022-12-18T00:43:57;102892.81;;;-2.54;93.04
49813;BME280;35706;52.100;5.056;2022-12-18T00:44:57;102890.22;;;-2.49;92.69
49813;BME280;35706;52.100;5.056;2022-12-18T00:45:57;102888.50;;;-2.56;92.97
49813;BME280;35706;52.100;5.056;2022-12-18T00:46:58;102886.78;;;-2.60;93.02
49813;BME280;35706;52.100;5.056;2022-12-18T00:47:58;102884.22;;;-2.65;93.41
49813;BME280;35706;52.100;5.056;2022-12-18T00:48:58;102880.78;;;-2.61;93.65
49813;BME280;35706;52.100;5.056;2022-12-18T00:49:59;102883.38;;;-2.58;93.18
49813;BME280;35706;52.100;5.056;2022-12-18T00:51:00;102884.19;;;-2.43;92.89
49813;BME280;35706;52.100;5.056;2022-12-18T00:52:00;102878.22;;;-2.64;93.17
49813;BME280;35706;52.100;5.056;2022-12-18T00:53:00;102879.06;;;-2.71;93.39
49813;BME280;35706;52.100;5.056;2022-12-18T00:54:01;102881.66;;;-2.62;93.35
49813;BME280;35706;52.100;5.056;2022-12-18T00:55:01;102876.50;;;-2.60;93.56
49813;BME280;35706;52.100;5.056;2022-12-18T00:56:01;102871.34;;;-2.56;92.83
49813;BME280;35706;52.100;5.056;2022-12-18T00:57:01;102875.63;;;-2.67;92.94
49813;BME280;35706;52.100;5.056;2022-12-18T00:58:02;102871.38;;;-2.62;93.11
49813;BME280;35706;52.100;5.056;2022-12-18T00:59:03;102876.53;;;-2.79;93.50
49813;BME280;35706;52.100;5.056;2022-12-18T01:00:04;102882.53;;;-2.94;93.90
49813;BME280;35706;52.100;5.056;2022-12-18T01:01:05;102887.66;;;-3.00;94.46
49813;BME280;35706;52.100;5.056;2022-12-18T01:02:05;102892.81;;;-2.88;94.58
49813;BME280;35706;52.100;5.056;2022-12-18T01:03:06;102897.09;;;-2.82;94.07
49813;BME280;35706;52.100;5.056;2022-12-18T01:04:06;102898.81;;;-2.82;94.14
49813;BME280;35706;52.100;5.056;2022-12-18T01:05:08;102908.28;;;-2.71;93.87
49813;BME280;35706;52.100;5.056;2022-12-18T01:06:11;102912.56;;;-2.62;93.51
49813;BME280;35706;52.100;5.056;2022-12-18T01:07:11;102910.84;;;-2.66;93.27
49813;BME280;35706;52.100;5.056;2022-12-18T01:08:12;102906.53;;;-2.70;93.30
49813;BME280;35706;52.100;5.056;2022-12-18T01:09:12;102909.97;;;-2.74;93.56
49813;BME280;35706;52.100;5.056;2022-12-18T01:10:13;102903.09;;;-2.74;93.34
49813;BME280;35706;52.100;5.056;2022-12-18T01:11:16;102903.97;;;-2.78;93.53
49813;BME280;35706;52.100;5.056;2022-12-18T01:12:17;102901.41;;;-2.75;93.71
49813;BME280;35706;52.100;5.056;2022-12-18T01:13:17;102903.13;;;-2.77;93.69
49813;BME280;35706;52.100;5.056;2022-12-18T01:14:17;102898.81;;;-2.73;93.76
49813;BME280;35706;52.100;5.056;2022-12-18T01:15:18;102900.53;;;-2.66;93.11
49813;BME280;35706;52.100;5.056;2022-12-18T01:16:19;102898.84;;;-2.62;92.67
49813;BME280;35706;52.100;5.056;2022-12-18T01:17:19;102899.69;;;-2.73;92.99
49813;BME280;35706;52.100;5.056;2022-12-18T01:18:20;102900.53;;;-2.69;93.23
49813;BME280;35706;52.100;5.056;2022-12-18T01:19:20;102903.97;;;-2.59;92.77
49813;BME280;35706;52.100;5.056;2022-12-18T01:20:20;102897.09;;;-2.71;93.13
49813;BME280;35706;52.100;5.056;2022-12-18T01:21:22;102905.66;;;-2.69;93.15
49813;BME280;35706;52.100;5.056;2022-12-18T01:22:23;102905.69;;;-2.60;92.41
49813;BME280;35706;52.100;5.056;2022-12-18T01:23:23;102904.81;;;-2.57;92.32
49813;BME280;35706;52.100;5.056;2022-12-18T01:24:23;102903.97;;;-2.70;92.75
49813;BME280;35706;52.100;5.056;2022-12-18T01:25:23;102906.53;;;-2.70;92.88
49813;BME280;35706;52.100;5.056;2022-12-18T01:26:25;102900.53;;;-2.63;92.86
49813;BME280;35706;52.100;5.056;2022-12-18T01:27:25;102908.25;;;-2.63;92.83
49813;BME280;35706;52.100;5.056;2022-12-18T01:28:26;102902.25;;;-2.79;93.12
49813;BME280;35706;52.100;5.056;2022-12-18T01:29:26;102906.56;;;-2.81;93.00
49813;BME280;35706;52.100;5.056;2022-12-18T01:30:26;102906.56;;;-2.81;92.87
49813;BME280;35706;52.100;5.056;2022-12-18T01:31:28;102902.25;;;-2.87;92.93
49813;BME280;35706;52.100;5.056;2022-12-18T01:32:30;102903.97;;;-2.70;92.71
49813;BME280;35706;52.100;5.056;2022-12-18T01:33:31;102899.69;;;-2.67;92.53
49813;BME280;35706;52.100;5.056;2022-12-18T01:34:31;102893.69;;;-2.79;92.26
49813;BME280;35706;52.100;5.056;2022-12-18T01:35:31;102903.97;;;-2.98;93.54
49813;BME280;35706;52.100;5.056;2022-12-18T01:36:34;102896.25;;;-2.96;93.58
49813;BME280;35706;52.100;5.056;2022-12-18T01:37:34;102900.53;;;-3.04;93.84
49813;BME280;35706;52.100;5.056;2022-12-18T01:38:34;102906.53;;;-2.93;93.73
49813;BME280;35706;52.100;5.056;2022-12-18T01:39:35;102898.81;;;-2.76;93.16
49813;BME280;35706;52.100;5.056;2022-12-18T01:40:35;102899.69;;;-2.68;92.87
49813;BME280;35706;52.100;5.056;2022-12-18T01:41:36;102905.66;;;-2.75;92.90
49813;BME280;35706;52.100;5.056;2022-12-18T01:42:55;102897.09;;;-2.82;93.20
49813;BME280;35706;52.100;5.056;2022-12-18T01:43:57;102906.56;;;-2.75;93.23
49813;BME280;35706;52.100;5.056;2022-12-18T01:46:17;102898.81;;;-2.64;92.57
49813;BME280;35706;52.100;5.056;2022-12-18T01:48:30;102910.84;;;-2.81;93.15
49813;BME280;35706;52.100;5.056;2022-12-18T01:49:31;102909.97;;;-2.91;93.07
49813;BME280;35706;52.100;5.056;2022-12-18T01:50:41;102912.53;;;-3.02;93.98
49813;BME280;35706;52.100;5.056;2022-12-18T01:51:42;102915.09;;;-2.88;94.10
49813;BME280;35706;52.100;5.056;2022-12-18T01:52:45;102921.97;;;-2.98;93.42
49813;BME280;35706;52.100;5.056;2022-12-18T01:53:47;102921.13;;;-3.00;94.00
49813;BME280;35706;52.100;5.056;2022-12-18T01:54:50;102918.56;;;-2.83;93.66
49813;BME280;35706;52.100;5.056;2022-12-18T01:55:57;102917.69;;;-2.93;93.65
49813;BME280;35706;52.100;5.056;2022-12-18T01:56:58;102912.56;;;-2.90;93.85
49813;BME280;35706;52.100;5.056;2022-12-18T01:58:00;102915.13;;;-2.76;93.32
49813;BME280;35706;52.100;5.056;2022-12-18T01:59:05;102915.97;;;-2.69;93.18
49813;BME280;35706;52.100;5.056;2022-12-18T02:00:14;102909.97;;;-2.93;93.36
49813;BME280;35706;52.100;5.056;2022-12-18T02:01:15;102911.69;;;-2.92;93.52
49813;BME280;35706;52.100;5.056;2022-12-18T02:02:16;102915.13;;;-2.85;93.65
49813;BME280;35706;52.100;5.056;2022-12-18T02:03:16;102913.38;;;-2.86;93.35
49813;BME280;35706;52.100;5.056;2022-12-18T02:04:25;102920.28;;;-2.79;93.19
49813;BME280;35706;52.100;5.056;2022-12-18T02:07:15;102927.13;;;-2.84;93.45
49813;BME280;35706;52.100;5.056;2022-12-18T02:09:38;102930.56;;;-2.70;91.94
49813;BME280;35706;52.100;5.056;2022-12-18T02:12:08;102934.00;;;-2.81;92.05
49813;BME280;35706;52.100;5.056;2022-12-18T02:16:53;102945.16;;;-2.81;92.66
49813;BME280;35706;52.100;5.056;2022-12-18T02:17:59;102955.41;;;-2.99;92.41
49813;BME280;35706;52.100;5.056;2022-12-18T02:19:43;102951.03;;;-3.33;93.81
49813;BME280;35706;52.100;5.056;2022-12-18T02:20:38;102955.34;;;-3.27;94.68
49813;BME280;35706;52.100;5.056;2022-12-18T02:23:47;102937.38;;;-3.05;94.31
49813;BME280;35706;52.100;5.056;2022-12-18T02:26:28;102941.66;;;-3.09;93.93
49813;BME280;35706;52.100;5.056;2022-12-18T02:27:32;102932.25;;;-2.90;93.38
49813;BME280;35706;52.100;5.056;2022-12-18T02:28:38;102937.41;;;-2.95;93.36
49813;BME280;35706;52.100;5.056;2022-12-18T02:29:46;102931.41;;;-3.06;93.42
49813;BME280;35706;52.100;5.056;2022-12-18T02:30:50;102934.84;;;-2.87;93.17
49813;BME280;35706;52.100;5.056;2022-12-18T02:31:56;102928.00;;;-2.80;92.56
49813;BME280;35706;52.100;5.056;2022-12-18T02:32:57;102933.13;;;-2.76;92.28
49813;BME280;35706;52.100;5.056;2022-12-18T02:34:02;102934.84;;;-2.95;92.26
49813;BME280;35706;52.100;5.056;2022-12-18T02:35:05;102939.09;;;-3.08;92.92
49813;BME280;35706;52.100;5.056;2022-12-18T02:36:07;102938.28;;;-2.83;92.80
49813;BME280;35706;52.100;5.056;2022-12-18T02:37:12;102934.00;;;-2.88;92.33
49813;BME280;35706;52.100;5.056;2022-12-18T02:38:14;102936.56;;;-2.98;92.59
49813;BME280;35706;52.100;5.056;2022-12-18T02:39:16;102937.38;;;-3.05;92.94
49813;BME280;35706;52.100;5.056;2022-12-18T02:40:19;102934.81;;;-3.13;93.25
49813;BME280;35706;52.100;5.056;2022-12-18T02:41:21;102939.13;;;-3.04;93.04
49813;BME280;35706;52.100;5.056;2022-12-18T02:42:22;102922.84;;;-2.96;93.12
49813;BME280;35706;52.100;5.056;2022-12-18T02:43:23;102927.13;;;-3.02;92.69
49813;BME280;35706;52.100;5.056;2022-12-18T02:44:24;102923.66;;;-3.08;92.66
49813;BME280;35706;52.100;5.056;2022-12-18T02:45:24;102922.81;;;-3.08;93.19
49813;BME280;35706;52.100;5.056;2022-12-18T02:47:30;102922.81;;;-3.03;92.77
49813;BME280;35706;52.100;5.056;2022-12-18T02:48:34;102926.25;;;-3.03;92.04
49813;BME280;35706;52.100;5.056;2022-12-18T02:49:53;102923.63;;;-3.31;92.68
49813;BME280;35706;52.100;5.056;2022-12-18T02:51:00;102921.06;;;-3.20;92.96
49813;BME280;35706;52.100;5.056;2022-12-18T02:53:24;102910.81;;;-3.15;92.50
49813;BME280;35706;52.100;5.056;2022-12-18T02:57:05;102915.09;;;-3.05;92.13
49813;BME280;35706;52.100;5.056;2022-12-18T02:59:40;102903.91;;;-3.18;92.61
49813;BME280;35706;52.100;5.056;2022-12-18T03:01:02;102899.66;;;-3.08;92.57
49813;BME280;35706;52.100;5.056;2022-12-18T03:02:27;102894.53;;;-3.02;92.45
49813;BME280;35706;52.100;5.056;2022-12-18T03:04:11;102888.53;;;-2.85;91.28
49813;BME280;35706;52.100;5.056;2022-12-18T03:05:22;102882.53;;;-2.95;91.25
49813;BME280;35706;52.100;5.056;2022-12-18T03:06:30;102878.22;;;-2.95;91.09
49813;BME280;35706;52.100;5.056;2022-12-18T03:07:37;102878.22;;;-3.10;91.40
49813;BME280;35706;52.100;5.056;2022-12-18T03:08:42;102883.38;;;-2.89;91.14
49813;BME280;35706;52.100;5.056;2022-12-18T03:09:47;102885.09;;;-2.91;91.09
49813;BME280;35706;52.100;5.056;2022-12-18T03:10:53;102877.38;;;-2.86;90.75
49813;BME280;35706;52.100;5.056;2022-12-18T03:12:01;102879.94;;;-2.94;90.36
49813;BME280;35706;52.100;5.056;2022-12-18T03:13:27;102873.94;;;-2.85;90.78
49813;BME280;35706;52.100;5.056;2022-12-18T03:14:30;102873.06;;;-2.84;90.19
49813;BME280;35706;52.100;5.056;2022-12-18T03:15:38;102876.53;;;-2.79;90.12
49813;BME280;35706;52.100;5.056;2022-12-18T03:16:41;102873.06;;;-2.90;90.29
49813;BME280;35706;52.100;5.056;2022-12-18T03:17:46;102866.22;;;-2.99;90.42
49813;BME280;35706;52.100;5.056;2022-12-18T03:18:53;102873.09;;;-3.04;90.82
49813;BME280;35706;52.100;5.056;2022-12-18T03:19:57;102878.25;;;-3.02;90.45
49813;BME280;35706;52.100;5.056;2022-12-18T03:21:00;102871.38;;;-3.13;90.80
49813;BME280;35706;52.100;5.056;2022-12-18T03:22:03;102862.78;;;-3.16;91.15
49813;BME280;35706;52.100;5.056;2022-12-18T03:23:16;102861.91;;;-3.12;91.09
49813;BME280;35706;52.100;5.056;2022-12-18T03:24:18;102861.94;;;-3.06;91.04
49813;BME280;35706;52.100;5.056;2022-12-18T03:25:20;102855.91;;;-3.05;90.80
49813;BME280;35706;52.100;5.056;2022-12-18T03:26:24;102858.50;;;-2.97;90.66
49813;BME280;35706;52.100;5.056;2022-12-18T03:27:28;102860.22;;;-3.10;90.63
49813;BME280;35706;52.100;5.056;2022-12-18T03:28:34;102862.78;;;-3.19;90.73
49813;BME280;35706;52.100;5.056;2022-12-18T03:29:43;102856.78;;;-3.17;90.83
49813;BME280;35706;52.100;5.056;2022-12-18T03:30:46;102854.22;;;-2.98;90.17
49813;BME280;35706;52.100;5.056;2022-12-18T03:31:52;102855.06;;;-2.90;89.44
49813;BME280;35706;52.100;5.056;2022-12-18T03:33:00;102852.47;;;-2.90;89.15
49813;BME280;35706;52.100;5.056;2022-12-18T03:34:05;102861.06;;;-2.87;88.99
49813;BME280;35706;52.100;5.056;2022-12-18T03:35:11;102863.66;;;-2.87;88.52
49813;BME280;35706;52.100;5.056;2022-12-18T03:36:14;102857.63;;;-2.84;88.33
49813;BME280;35706;52.100;5.056;2022-12-18T03:37:15;102854.22;;;-2.94;88.45
49813;BME280;35706;52.100;5.056;2022-12-18T03:38:15;102850.78;;;-2.99;88.31
49813;BME280;35706;52.100;5.056;2022-12-18T03:39:15;102850.78;;;-2.85;88.13
49813;BME280;35706;52.100;5.056;2022-12-18T03:40:16;102855.06;;;-2.89;87.70
49813;BME280;35706;52.100;5.056;2022-12-18T03:41:18;102843.94;;;-2.81;87.53
49813;BME280;35706;52.100;5.056;2022-12-18T03:42:29;102858.50;;;-2.96;87.61
49813;BME280;35706;52.100;5.056;2022-12-18T03:43:52;102854.19;;;-2.97;88.13
49813;BME280;35706;52.100;5.056;2022-12-18T03:45:19;102852.50;;;-3.15;88.46
49813;BME280;35706;52.100;5.056;2022-12-18T03:46:33;102848.19;;;-3.03;87.68
49813;BME280;35706;52.100;5.056;2022-12-18T03:48:52;102851.63;;;-3.12;87.83
49813;BME280;35706;52.100;5.056;2022-12-18T03:50:05;102855.06;;;-3.07;87.79
49813;BME280;35706;52.100;5.056;2022-12-18T03:51:37;102845.63;;;-2.91;86.87
49813;BME280;35706;52.100;5.056;2022-12-18T03:52:50;102847.34;;;-3.01;86.97
49813;BME280;35706;52.100;5.056;2022-12-18T03:54:00;102844.78;;;-3.01;86.74
49813;BME280;35706;52.100;5.056;2022-12-18T03:55:03;102838.75;;;-3.08;87.34
49813;BME280;35706;52.100;5.056;2022-12-18T03:56:05;102831.91;;;-3.07;87.08
49813;BME280;35706;52.100;5.056;2022-12-18T03:57:11;102827.63;;;-3.08;87.26
49813;BME280;35706;52.100;5.056;2022-12-18T03:58:17;102830.19;;;-3.16;87.06
49813;BME280;35706;52.100;5.056;2022-12-18T03:59:19;102831.06;;;-3.23;87.81
49813;BME280;35706;52.100;5.056;2022-12-18T04:00:20;102825.91;;;-3.15;87.29
49813;BME280;35706;52.100;5.056;2022-12-18T04:01:25;102826.78;;;-3.13;87.41
49813;BME280;35706;52.100;5.056;2022-12-18T04:02:28;102819.03;;;-3.12;87.16
49813;BME280;35706;52.100;5.056;2022-12-18T04:03:31;102822.50;;;-3.17;86.98
49813;BME280;35706;52.100;5.056;2022-12-18T04:04:34;102821.63;;;-3.13;87.19
49813;BME280;35706;52.100;5.056;2022-12-18T04:05:36;102819.91;;;-3.14;86.89
49813;BME280;35706;52.100;5.056;2022-12-18T04:06:38;102811.31;;;-3.05;86.30
49813;BME280;35706;52.100;5.056;2022-12-18T04:07:40;102821.63;;;-3.09;86.75
49813;BME280;35706;52.100;5.056;2022-12-18T04:08:41;102811.34;;;-3.10;86.70
49813;BME280;35706;52.100;5.056;2022-12-18T04:09:43;102813.88;;;-3.07;86.40
49813;BME280;35706;52.100;5.056;2022-12-18T04:10:44;102799.31;;;-3.08;86.31
49813;BME280;35706;52.100;5.056;2022-12-18T04:11:46;102813.06;;;-3.15;86.38
49813;BME280;35706;52.100;5.056;2022-12-18T04:12:46;102801.88;;;-3.05;86.03
49813;BME280;35706;52.100;5.056;2022-12-18T04:13:47;102808.75;;;-2.93;85.68
49813;BME280;35706;52.100;5.056;2022-12-18T04:14:47;102806.19;;;-3.05;85.43
49813;BME280;35706;52.100;5.056;2022-12-18T04:15:47;102804.47;;;-3.16;85.72
49813;BME280;35706;52.100;5.056;2022-12-18T04:16:47;102805.31;;;-3.14;86.02
49813;BME280;35706;52.100;5.056;2022-12-18T04:17:49;102799.31;;;-2.96;85.60
49813;BME280;35706;52.100;5.056;2022-12-18T04:18:50;102806.19;;;-3.09;85.31
49813;BME280;35706;52.100;5.056;2022-12-18T04:19:50;102812.19;;;-3.17;85.63
49813;BME280;35706;52.100;5.056;2022-12-18T04:20:50;102814.75;;;-3.05;85.83
49813;BME280;35706;52.100;5.056;2022-12-18T04:21:51;102815.63;;;-3.17;85.46
49813;BME280;35706;52.100;5.056;2022-12-18T04:22:51;102809.59;;;-3.10;85.79
49813;BME280;35706;52.100;5.056;2022-12-18T04:23:51;102818.19;;;-3.11;85.57
49813;BME280;35706;52.100;5.056;2022-12-18T04:24:52;102813.91;;;-3.21;86.00
49813;BME280;35706;52.100;5.056;2022-12-18T04:25:52;102811.34;;;-3.10;85.91
49813;BME280;35706;52.100;5.056;2022-12-18T04:26:52;102814.75;;;-3.14;85.82
49813;BME280;35706;52.100;5.056;2022-12-18T04:27:52;102814.75;;;-3.11;85.80
49813;BME280;35706;52.100;5.056;2022-12-18T04:28:53;102825.91;;;-3.21;85.58
49813;BME280;35706;52.100;5.056;2022-12-18T04:29:53;102824.22;;;-3.13;85.66
49813;BME280;35706;52.100;5.056;2022-12-18T04:30:53;102826.75;;;-3.01;84.74
49813;BME280;35706;52.100;5.056;2022-12-18T04:31:53;102824.22;;;-3.02;84.43
49813;BME280;35706;52.100;5.056;2022-12-18T04:32:54;102824.19;;;-3.09;84.35
49813;BME280;35706;52.100;5.056;2022-12-18T04:33:54;102820.75;;;-3.08;84.43
49813;BME280;35706;52.100;5.056;2022-12-18T04:34:54;102819.91;;;-3.10;84.36
49813;BME280;35706;52.100;5.056;2022-12-18T04:35:55;102828.47;;;-3.01;84.07
49813;BME280;35706;52.100;5.056;2022-12-18T04:36:55;102838.75;;;-3.03;84.55
49813;BME280;35706;52.100;5.056;2022-12-18T04:37:55;102832.78;;;-2.96;84.00
49813;BME280;35706;52.100;5.056;2022-12-18T04:38:56;102829.34;;;-2.98;84.03
49813;BME280;35706;52.100;5.056;2022-12-18T04:39:56;102840.50;;;-2.97;83.75
49813;BME280;35706;52.100;5.056;2022-12-18T04:40:56;102833.63;;;-3.00;83.71
49813;BME280;35706;52.100;5.056;2022-12-18T04:41:56;102831.91;;;-3.01;83.71
49813;BME280;35706;52.100;5.056;2022-12-18T04:42:57;102831.91;;;-3.10;83.89
49813;BME280;35706;52.100;5.056;2022-12-18T04:43:57;102841.34;;;-3.17;83.60
49813;BME280;35706;52.100;5.056;2022-12-18T04:44:57;102831.88;;;-3.50;84.95
49813;BME280;35706;52.100;5.056;2022-12-18T04:46:05;102827.63;;;-3.34;84.91
49813;BME280;35706;52.100;5.056;2022-12-18T04:47:06;102835.34;;;-3.34;85.08
49813;BME280;35706;52.100;5.056;2022-12-18T04:48:07;102839.63;;;-3.30;85.25
49813;BME280;35706;52.100;5.056;2022-12-18T04:49:08;102842.19;;;-3.36;85.15
49813;BME280;35706;52.100;5.056;2022-12-18T04:50:10;102848.19;;;-3.27;84.33
49813;BME280;35706;52.100;5.056;2022-12-18T04:51:10;102848.16;;;-3.42;84.49
49813;BME280;35706;52.100;5.056;2022-12-18T04:52:10;102851.59;;;-3.40;85.10
49813;BME280;35706;52.100;5.056;2022-12-18T04:53:11;102846.44;;;-3.41;84.98
49813;BME280;35706;52.100;5.056;2022-12-18T04:54:11;102849.88;;;-3.45;84.89
49813;BME280;35706;52.100;5.056;2022-12-18T04:55:11;102860.16;;;-3.49;85.01
49813;BME280;35706;52.100;5.056;2022-12-18T04:56:14;102857.56;;;-3.56;85.61
49813;BME280;35706;52.100;5.056;2022-12-18T04:57:14;102854.16;;;-3.41;85.12
49813;BME280;35706;52.100;5.056;2022-12-18T04:58:15;102858.44;;;-3.43;84.62
49813;BME280;35706;52.100;5.056;2022-12-18T04:59:15;102851.59;;;-3.26;84.16
49813;BME280;35706;52.100;5.056;2022-12-18T05:00:16;102857.63;;;-3.19;83.96
49813;BME280;35706;52.100;5.056;2022-12-18T05:01:17;102856.75;;;-3.20;83.03
49813;BME280;35706;52.100;5.056;2022-12-18T05:02:18;102854.16;;;-3.37;83.78
49813;BME280;35706;52.100;5.056;2022-12-18T05:03:18;102849.06;;;-3.28;83.58
49813;BME280;35706;52.100;5.056;2022-12-18T05:04:18;102859.31;;;-3.26;83.34
49813;BME280;35706;52.100;5.056;2022-12-18T05:05:18;102854.16;;;-3.44;84.01
49813;BME280;35706;52.100;5.056;2022-12-18T05:06:19;102857.59;;;-3.38;83.64
49813;BME280;35706;52.100;5.056;2022-12-18T05:07:19;102862.75;;;-3.38;83.74
49813;BME280;35706;52.100;5.056;2022-12-18T05:08:20;102857.59;;;-3.44;83.80
49813;BME280;35706;52.100;5.056;2022-12-18T05:09:20;102857.63;;;-3.36;83.81
49813;BME280;35706;52.100;5.056;2022-12-18T05:10:20;102857.63;;;-3.32;83.71
49813;BME280;35706;52.100;5.056;2022-12-18T05:11:20;102863.59;;;-3.43;83.64
49813;BME280;35706;52.100;5.056;2022-12-18T05:12:21;102859.31;;;-3.34;83.73
49813;BME280;35706;52.100;5.056;2022-12-18T05:13:21;102855.03;;;-3.29;83.67
49813;BME280;35706;52.100;5.056;2022-12-18T05:14:21;102859.34;;;-3.28;83.16
49813;BME280;35706;52.100;5.056;2022-12-18T05:15:22;102857.59;;;-3.29;83.06
49813;BME280;35706;52.100;5.056;2022-12-18T05:16:22;102858.50;;;-3.28;82.77
49813;BME280;35706;52.100;5.056;2022-12-18T05:17:22;102862.75;;;-3.32;83.01
49813;BME280;35706;52.100;5.056;2022-12-18T05:18:23;102865.34;;;-3.36;83.09
49813;BME280;35706;52.100;5.056;2022-12-18T05:19:24;102867.91;;;-3.30;82.92
49813;BME280;35706;52.100;5.056;2022-12-18T05:20:24;102862.75;;;-3.32;82.90
49813;BME280;35706;52.100;5.056;2022-12-18T05:21:25;102855.91;;;-3.27;82.96
49813;BME280;35706;52.100;5.056;2022-12-18T05:22:25;102862.75;;;-3.36;83.07
49813;BME280;35706;52.100;5.056;2022-12-18T05:23:26;102868.72;;;-3.43;83.39
49813;BME280;35706;52.100;5.056;2022-12-18T05:24:27;102873.03;;;-3.33;83.48
49813;BME280;35706;52.100;5.056;2022-12-18T05:25:27;102877.34;;;-3.34;83.35
49813;BME280;35706;52.100;5.056;2022-12-18T05:26:27;102880.75;;;-3.33;83.14
49813;BME280;35706;52.100;5.056;2022-12-18T05:27:27;102879.03;;;-3.40;83.49
49813;BME280;35706;52.100;5.056;2022-12-18T05:28:29;102878.13;;;-3.50;83.69
49813;BME280;35706;52.100;5.056;2022-12-18T05:29:30;102878.13;;;-3.59;84.00
49813;BME280;35706;52.100;5.056;2022-12-18T05:30:30;102876.41;;;-3.56;84.19
49813;BME280;35706;52.100;5.056;2022-12-18T05:31:31;102874.72;;;-3.49;83.84
49813;BME280;35706;52.100;5.056;2022-12-18T05:32:31;102873.00;;;-3.45;83.83
49813;BME280;35706;52.100;5.056;2022-12-18T05:33:33;102868.72;;;-3.39;83.34
49813;BME280;35706;52.100;5.056;2022-12-18T05:34:34;102873.00;;;-3.44;83.64
49813;BME280;35706;52.100;5.056;2022-12-18T05:35:34;102868.75;;;-3.40;83.21
49813;BME280;35706;52.100;5.056;2022-12-18T05:36:34;102870.44;;;-3.49;83.52
49813;BME280;35706;52.100;5.056;2022-12-18T05:37:35;102866.16;;;-3.46;83.52
49813;BME280;35706;52.100;5.056;2022-12-18T05:38:37;102865.31;;;-3.29;82.61
49813;BME280;35706;52.100;5.056;2022-12-18T05:39:38;102868.72;;;-3.51;82.63
49813;BME280;35706;52.100;5.056;2022-12-18T05:40:41;102868.75;;;-3.40;82.50
49813;BME280;35706;52.100;5.056;2022-12-18T05:41:42;102871.31;;;-3.37;82.28
49813;BME280;35706;52.100;5.056;2022-12-18T05:42:42;102862.75;;;-3.38;82.13
49813;BME280;35706;52.100;5.056;2022-12-18T05:43:43;102866.16;;;-3.51;82.33
49813;BME280;35706;52.100;5.056;2022-12-18T05:44:43;102855.84;;;-3.57;82.88
49813;BME280;35706;52.100;5.056;2022-12-18T05:45:44;102855.03;;;-3.44;82.74
49813;BME280;35706;52.100;5.056;2022-12-18T05:46:45;102849.88;;;-3.39;82.30
49813;BME280;35706;52.100;5.056;2022-12-18T05:47:45;102856.78;;;-3.32;81.74
49813;BME280;35706;52.100;5.056;2022-12-18T05:48:46;102863.59;;;-3.39;82.21
49813;BME280;35706;52.100;5.056;2022-12-18T05:49:46;102849.88;;;-3.33;81.98
49813;BME280;35706;52.100;5.056;2022-12-18T05:50:48;102849.00;;;-3.41;82.26